Time;durP1;ratioP1;P1;durP2;ratioP2;P2;SDS_P1;SDS_P2;PMS_P1;PMS_P2;Temp;Humidity;BMP_temperature;BMP_pressure;BME280_temperature;BME280_humidity;BME280_pressure;Samples;Min_cycle;Max_cycle;Signal;HPM_P1;HPM_P2
2023/04/20 00:02:15;;;;;;;8.70;7.35;;;;;;;9.98;48.97;93476.19;4986850;28;20042;-76
2023/04/20 00:04:40;;;;;;;9.60;8.63;;;;;;;10.25;48.45;93493.63;4983662;28;20037;-76
2023/04/20 00:07:06;;;;;;;11.57;7.57;;;;;;;10.16;48.53;93469.75;4986876;28;20372;-76
2023/04/20 00:09:31;;;;;;;10.20;7.50;;;;;;;10.22;48.18;93468.44;4986666;28;20022;-78
2023/04/20 00:11:57;;;;;;;9.40;7.85;;;;;;;10.31;48.19;93468.44;4985371;28;20075;-77
2023/04/20 00:14:22;;;;;;;8.68;6.95;;;;;;;10.37;48.35;93475.16;4984424;28;20034;-77
2023/04/20 00:16:48;;;;;;;10.60;7.70;;;;;;;10.41;48.21;93464.69;4985417;28;20157;-76
2023/04/20 00:19:13;;;;;;;7.63;6.93;;;;;;;10.57;47.76;93473.66;4985760;28;20129;-76
2023/04/20 00:21:38;;;;;;;9.48;8.20;;;;;;;10.54;47.87;93463.66;4987448;28;20393;-76
2023/04/20 00:24:04;;;;;;;8.07;6.90;;;;;;;10.61;48.00;93474.59;4987924;28;20030;-76
2023/04/20 00:26:29;;;;;;;12.30;8.18;;;;;;;10.54;47.83;93464.44;4986332;28;20038;-77
2023/04/20 00:28:55;;;;;;;11.70;8.23;;;;;;;10.58;47.86;93459.25;4987691;28;20039;-77
2023/04/20 00:31:20;;;;;;;9.35;7.28;;;;;;;10.74;47.78;93462.94;4985498;28;20050;-77
2023/04/20 00:33:47;;;;;;;10.02;8.20;;;;;;;10.65;48.02;93449.69;4986665;28;20531;-77
2023/04/20 00:36:12;;;;;;;8.82;6.47;;;;;;;10.62;47.47;93433.59;4986184;28;20030;-77
2023/04/20 00:38:37;;;;;;;7.97;7.18;;;;;;;10.40;47.52;93405.41;4985494;28;20038;-77
2023/04/20 00:41:03;;;;;;;10.95;7.38;;;;;;;10.82;47.15;93459.44;4983517;28;20407;-77
2023/04/20 00:43:29;;;;;;;7.05;6.30;;;;;;;10.73;47.70;93467.47;4994155;28;20164;-76
2023/04/20 00:45:54;;;;;;;8.15;7.35;;;;;;;10.59;47.63;93450.19;4986053;28;20336;-77
2023/04/20 00:48:21;;;;;;;8.43;6.82;;;;;;;10.57;47.80;93452.38;4979653;28;20070;-79
2023/04/20 00:50:48;;;;;;;9.63;7.80;;;;;;;10.49;48.40;93455.88;4985247;28;20475;-76
2023/04/20 00:53:14;;;;;;;7.93;7.13;;;;;;;10.56;48.41;93456.16;4993393;28;20061;-76
2023/04/20 00:55:42;;;;;;;9.50;7.70;;;;;;;10.48;48.69;93459.63;4985916;28;21041;-77
2023/04/20 00:58:07;;;;;;;9.45;7.88;;;;;;;10.22;48.71;93430.50;4986663;28;20022;-77
2023/04/20 01:00:33;;;;;;;10.48;7.53;;;;;;;10.18;49.26;93440.97;4985419;28;20050;-77
2023/04/20 01:02:59;;;;;;;13.02;8.40;;;;;;;10.28;48.99;93455.78;4983694;28;20037;-77
2023/04/20 01:05:24;;;;;;;9.13;8.25;;;;;;;10.45;49.40;93466.38;4984957;28;20031;-76
2023/04/20 01:07:50;;;;;;;8.73;7.30;;;;;;;10.29;49.61;93452.03;4991458;28;20046;-76
2023/04/20 01:10:15;;;;;;;8.35;7.55;;;;;;;10.30;49.33;93443.75;5010245;28;20046;-77
2023/04/20 01:12:41;;;;;;;9.20;8.00;;;;;;;10.36;49.71;93462.16;4984891;28;20029;-77
2023/04/20 01:15:07;;;;;;;14.40;9.25;;;;;;;10.19;50.13;93458.47;4983632;28;20035;-76
2023/04/20 01:17:36;;;;;;;9.20;8.20;;;;;;;10.14;50.44;93471.94;4987026;28;20145;-77
2023/04/20 01:20:03;;;;;;;11.98;9.13;;;;;;;9.80;51.35;93451.56;4989106;28;20148;-76
2023/04/20 01:22:29;;;;;;;11.55;8.75;;;;;;;9.89;51.27;93470.13;4987885;28;20038;-77
2023/04/20 01:24:54;;;;;;;11.23;8.80;;;;;;;9.89;51.42;93470.13;4989608;28;20029;-77
2023/04/20 01:27:20;;;;;;;10.95;9.75;;;;;;;9.86;51.56;93473.44;4990047;28;20041;-76
2023/04/20 01:29:45;;;;;;;11.63;8.23;;;;;;;9.80;51.52;93450.78;4988393;28;20041;-77
2023/04/20 01:32:11;;;;;;;13.90;8.70;;;;;;;9.92;51.69;93471.38;4988473;28;20519;-77
2023/04/20 01:34:37;;;;;;;11.40;8.18;;;;;;;9.79;52.10;93450.00;4994795;28;20038;-76
2023/04/20 01:37:07;;;;;;;11.77;8.10;;;;;;;9.97;52.01;93464.03;4989083;28;20033;-76
2023/04/20 01:39:37;;;;;;;10.80;8.93;;;;;;;9.99;51.84;93463.69;4987731;28;20028;-77
2023/04/20 01:42:03;;;;;;;8.13;7.32;;;;;;;10.13;51.52;93464.28;4989018;28;20033;-77
2023/04/20 01:44:28;;;;;;;9.93;7.47;;;;;;;10.12;51.59;93457.41;4986730;28;20424;-76
2023/04/20 01:46:54;;;;;;;9.38;8.38;;;;;;;10.24;51.08;93455.63;4986903;28;20061;-76
2023/04/20 01:49:19;;;;;;;8.77;7.78;;;;;;;10.14;50.77;93433.94;4990214;28;20026;-76
2023/04/20 01:51:44;;;;;;;8.30;7.50;;;;;;;10.06;50.79;93416.97;4988436;28;20121;-77
2023/04/20 01:54:10;;;;;;;10.45;8.18;;;;;;;10.31;50.87;93444.53;4990156;28;20045;-77
2023/04/20 01:56:35;;;;;;;12.32;8.57;;;;;;;10.21;50.80;93435.03;4985425;28;20125;-78
2023/04/20 01:59:01;;;;;;;10.32;8.20;;;;;;;10.26;50.31;93415.47;4984761;28;20053;-77
2023/04/20 02:01:26;;;;;;;10.07;8.60;;;;;;;10.32;49.94;93425.56;4988157;28;20487;-77
2023/04/20 02:03:52;;;;;;;9.48;8.40;;;;;;;10.18;50.81;93432.22;4987312;28;20022;-77
2023/04/20 02:06:17;;;;;;;15.95;9.30;;;;;;;9.92;51.47;93434.97;4987424;28;20037;-76
2023/04/20 02:08:43;;;;;;;10.45;9.32;;;;;;;9.95;51.40;93431.69;4988442;28;20128;-78
2023/04/20 02:11:08;;;;;;;9.68;8.68;;;;;;;10.01;50.98;93438.38;4986599;28;20038;-77
2023/04/20 02:13:33;;;;;;;9.93;8.93;;;;;;;9.95;51.02;93421.03;4988546;28;20100;-76
2023/04/20 02:15:59;;;;;;;11.00;9.65;;;;;;;9.95;51.02;93429.03;4987324;28;20030;-77
2023/04/20 02:18:24;;;;;;;12.20;8.85;;;;;;;10.03;51.44;93433.50;4988436;28;20034;-77
2023/04/20 02:20:50;;;;;;;11.73;9.38;;;;;;;9.92;50.96;93421.69;4981299;28;20046;-76
2023/04/20 02:23:15;;;;;;;10.27;8.95;;;;;;;9.81;51.22;93410.63;4988065;28;20026;-77
2023/04/20 02:25:41;;;;;;;14.15;10.40;;;;;;;10.05;51.20;93414.59;4985998;28;20319;-78
2023/04/20 02:28:06;;;;;;;9.05;8.18;;;;;;;10.22;50.75;93436.56;4988763;28;20041;-76
2023/04/20 02:30:31;;;;;;;11.77;8.68;;;;;;;10.27;50.46;93433.72;4986891;28;20037;-76
2023/04/20 02:32:57;;;;;;;10.73;8.63;;;;;;;10.32;50.55;93435.44;4987147;28;20092;-77
2023/04/20 02:35:23;;;;;;;11.73;9.52;;;;;;;10.43;50.28;93435.88;4988035;28;20039;-77
2023/04/20 02:37:48;;;;;;;12.93;9.43;;;;;;;10.45;50.60;93436.34;4985317;28;20655;-77
2023/04/20 02:40:14;;;;;;;11.80;9.63;;;;;;;10.42;50.19;93423.69;4988286;28;20022;-77
2023/04/20 02:42:39;;;;;;;10.45;9.10;;;;;;;10.39;49.63;93403.84;4986736;28;20025;-76
2023/04/20 02:45:06;;;;;;;8.27;7.30;;;;;;;10.49;49.11;93418.66;4988841;28;20092;-77
2023/04/20 02:47:31;;;;;;;11.52;7.80;;;;;;;10.48;48.82;93417.88;4986628;28;20034;-78
2023/04/20 02:49:57;;;;;;;11.80;9.48;;;;;;;10.53;48.91;93425.66;4987911;28;20050;-76
2023/04/20 02:52:22;;;;;;;10.30;8.93;;;;;;;10.52;48.97;93436.59;4988252;28;20041;-76
2023/04/20 02:54:48;;;;;;;12.52;8.90;;;;;;;10.38;49.16;93442.16;4987657;28;20481;-76
2023/04/20 02:57:13;;;;;;;10.27;8.57;;;;;;;10.29;49.44;93431.53;4987227;28;20034;-76
2023/04/20 02:59:38;;;;;;;9.05;8.13;;;;;;;10.06;49.74;93424.13;4989273;28;20033;-76
2023/04/20 03:02:04;;;;;;;12.13;9.23;;;;;;;9.97;50.51;93437.47;4985060;28;20025;-77
2023/04/20 03:04:30;;;;;;;12.00;8.85;;;;;;;9.94;50.87;93439.94;4986627;28;20449;-78
2023/04/20 03:06:57;;;;;;;10.73;8.55;;;;;;;10.02;50.43;93441.81;4986808;28;20099;-77
2023/04/20 03:09:23;;;;;;;11.50;9.38;;;;;;;9.82;50.80;93416.72;4990626;28;20092;-77
2023/04/20 03:11:49;;;;;;;11.07;9.98;;;;;;;9.90;50.88;93429.19;4985443;28;20054;-77
2023/04/20 03:14:15;;;;;;;10.57;9.30;;;;;;;10.04;51.03;93437.72;4987355;28;20041;-76
2023/04/20 03:16:40;;;;;;;11.02;8.45;;;;;;;9.86;50.72;93413.13;4985980;28;21023;-78
2023/04/20 03:19:06;;;;;;;11.65;8.25;;;;;;;10.07;50.15;93434.47;4986935;28;20152;-77
2023/04/20 03:21:32;;;;;;;10.80;8.25;;;;;;;9.93;50.23;93423.22;4984556;28;20454;-77
2023/04/20 03:23:58;;;;;;;10.95;8.20;;;;;;;9.78;49.56;93431.75;4985749;28;20033;-77
2023/04/20 03:26:24;;;;;;;10.57;8.63;;;;;;;9.57;49.58;93407.72;4986156;28;20065;-77
2023/04/20 03:28:50;;;;;;;10.52;7.88;;;;;;;9.65;49.46;93422.84;4987010;28;20038;-77
2023/04/20 03:31:15;;;;;;;9.80;8.35;;;;;;;9.63;49.31;93421.63;4986319;28;20542;-77
2023/04/20 03:33:40;;;;;;;14.70;8.85;;;;;;;9.45;49.16;93397.75;4985593;28;20420;-78
2023/04/20 03:36:06;;;;;;;15.70;8.55;;;;;;;9.63;49.32;93432.25;4984622;28;20049;-78
2023/04/20 03:38:31;;;;;;;10.60;8.20;;;;;;;9.53;49.58;93449.28;4986644;28;20773;-78
2023/04/20 03:40:57;;;;;;;9.73;8.60;;;;;;;9.44;49.72;93433.34;4983266;28;20081;-78
2023/04/20 03:43:22;;;;;;;9.80;8.35;;;;;;;9.58;49.65;93430.53;4985797;28;21347;-76
2023/04/20 03:45:48;;;;;;;10.70;8.52;;;;;;;9.76;49.46;93440.00;4986587;28;20030;-76
2023/04/20 03:48:13;;;;;;;9.25;8.13;;;;;;;9.77;49.23;93424.88;4985578;28;20026;-76
2023/04/20 03:50:39;;;;;;;9.32;7.90;;;;;;;9.75;49.23;93432.34;4983938;28;20488;-79
2023/04/20 03:53:04;;;;;;;10.02;8.95;;;;;;;9.85;49.53;93447.94;4988320;28;20985;-77
2023/04/20 03:55:29;;;;;;;10.90;9.77;;;;;;;9.56;49.73;93408.03;4983515;28;20037;-78
2023/04/20 03:57:55;;;;;;;13.82;10.00;;;;;;;8.94;51.23;93397.78;4987922;28;20077;-78
2023/04/20 04:00:20;;;;;;;14.65;9.70;;;;;;;9.28;51.70;93434.94;4988012;28;20420;-79
2023/04/20 04:02:46;;;;;;;15.13;10.82;;;;;;;9.37;51.17;93445.53;4985204;28;20087;-78
2023/04/20 04:05:11;;;;;;;10.52;9.23;;;;;;;9.16;51.78;93423.38;4987394;28;20062;-79
2023/04/20 04:07:37;;;;;;;11.50;9.93;;;;;;;9.24;51.95;93443.84;4985903;28;20381;-79
2023/04/20 04:10:04;;;;;;;15.20;10.25;;;;;;;9.12;52.20;93436.50;4985034;28;20050;-78
2023/04/20 04:12:30;;;;;;;15.10;11.90;;;;;;;9.11;52.93;93450.84;4987854;28;20023;-77
2023/04/20 04:14:55;;;;;;;15.63;11.38;;;;;;;8.94;53.20;93451.59;4986241;28;20045;-77
2023/04/20 04:17:21;;;;;;;14.00;10.90;;;;;;;8.91;53.45;93448.78;4987253;28;20026;-77
2023/04/20 04:19:46;;;;;;;16.92;11.60;;;;;;;8.98;54.17;93462.38;4983293;28;20053;-79
2023/04/20 04:22:11;;;;;;;14.60;11.48;;;;;;;9.08;53.31;93446.16;4986168;28;20407;-78
2023/04/20 04:24:37;;;;;;;12.60;11.30;;;;;;;9.20;53.53;93458.81;4985829;28;20314;-78
2023/04/20 04:27:04;;;;;;;14.80;11.77;;;;;;;9.07;53.37;93455.19;4985935;28;20042;-77
2023/04/20 04:29:30;;;;;;;19.73;12.45;;;;;;;8.99;53.79;93453.31;4984019;28;20047;-78
2023/04/20 04:31:57;;;;;;;15.40;11.70;;;;;;;8.47;54.22;93394.91;4993403;28;20038;-78
2023/04/20 04:34:22;;;;;;;14.25;12.25;;;;;;;8.78;54.48;93461.09;4987076;28;20397;-77
2023/04/20 04:36:48;;;;;;;15.90;13.07;;;;;;;8.64;54.95;93459.66;4987294;28;20030;-78
2023/04/20 04:39:14;;;;;;;16.80;12.63;;;;;;;8.51;55.78;93454.16;4982887;28;20061;-78
2023/04/20 04:41:39;;;;;;;18.45;12.48;;;;;;;8.44;55.92;93437.94;4984455;28;20038;-78
2023/04/20 04:44:05;;;;;;;16.08;12.10;;;;;;;8.49;55.65;93472.25;4986401;28;20100;-78
2023/04/20 04:46:31;;;;;;;20.33;13.32;;;;;;;8.57;55.89;93478.66;4985379;28;20031;-77
2023/04/20 04:48:59;;;;;;;14.18;11.15;;;;;;;8.64;56.08;93473.69;4985767;28;20477;-78
2023/04/20 04:51:25;;;;;;;20.70;12.05;;;;;;;8.68;55.57;93476.50;4985480;28;20068;-77
2023/04/20 04:53:50;;;;;;;12.95;11.68;;;;;;;8.69;55.42;93460.31;5000337;28;20113;-80
2023/04/20 04:56:17;;;;;;;13.07;11.10;;;;;;;8.92;54.71;93484.81;4989487;28;20035;-77
2023/04/20 04:58:44;;;;;;;13.82;11.38;;;;;;;8.83;54.74;93449.56;4989380;28;20034;-76
2023/04/20 05:01:10;;;;;;;12.40;10.95;;;;;;;8.80;54.92;93460.78;4990580;28;20616;-76
2023/04/20 05:03:35;;;;;;;17.33;12.27;;;;;;;9.08;54.85;93475.34;4988129;28;20043;-77
2023/04/20 05:06:00;;;;;;;18.48;13.07;;;;;;;9.24;54.29;93479.09;4989670;28;20041;-78
2023/04/20 05:08:26;;;;;;;13.88;11.55;;;;;;;9.48;53.62;93491.13;4989478;28;20045;-76
2023/04/20 05:10:51;;;;;;;14.10;11.52;;;;;;;9.53;53.54;93480.34;4988106;28;20038;-78
2023/04/20 05:13:16;;;;;;;16.25;12.43;;;;;;;9.40;53.32;93480.19;4989815;28;20452;-76
2023/04/20 05:15:42;;;;;;;15.77;11.60;;;;;;;9.32;53.43;93478.34;4990273;28;20440;-76
2023/04/20 05:18:07;;;;;;;14.38;11.93;;;;;;;9.13;53.63;93448.69;4988987;28;20030;-78
2023/04/20 05:20:33;;;;;;;18.17;13.70;;;;;;;9.46;53.35;93488.78;4987392;28;20082;-78
2023/04/20 05:22:58;;;;;;;17.15;12.43;;;;;;;9.41;53.63;93481.75;4990192;28;20040;-79
2023/04/20 05:25:24;;;;;;;16.85;12.65;;;;;;;9.38;53.77;93486.91;4989718;28;20037;-78
2023/04/20 05:27:50;;;;;;;15.98;11.73;;;;;;;9.26;53.91;93471.63;4988843;28;20034;-77
2023/04/20 05:30:15;;;;;;;16.52;12.63;;;;;;;9.31;53.86;93492.69;4988054;28;20097;-77
2023/04/20 05:32:41;;;;;;;18.60;12.63;;;;;;;9.13;54.32;93490.34;4989792;28;20041;-77
2023/04/20 05:35:07;;;;;;;21.10;13.30;;;;;;;9.28;54.43;93487.22;4989170;28;20038;-77
2023/04/20 05:37:32;;;;;;;17.20;11.73;;;;;;;9.24;54.42;93502.97;4987982;28;20498;-77
2023/04/20 05:39:57;;;;;;;17.02;12.68;;;;;;;9.13;55.19;93485.81;4988879;28;20034;-78
2023/04/20 05:42:23;;;;;;;19.70;12.90;;;;;;;9.12;55.13;93481.59;4987840;28;20037;-78
2023/04/20 05:44:48;;;;;;;15.93;12.48;;;;;;;9.14;54.96;93470.69;4988448;28;20088;-77
2023/04/20 05:47:13;;;;;;;19.13;13.88;;;;;;;9.29;55.33;93494.09;4986678;28;20038;-79
2023/04/20 05:49:39;;;;;;;19.00;13.15;;;;;;;9.26;55.93;93494.72;4986868;28;20030;-77
2023/04/20 05:52:05;;;;;;;26.17;14.93;;;;;;;9.32;56.12;93488.94;4988781;28;20476;-78
2023/04/20 05:54:30;;;;;;;20.20;14.93;;;;;;;9.38;55.67;93490.34;4986903;28;20021;-77
2023/04/20 05:56:59;;;;;;;17.23;13.00;;;;;;;9.22;55.77;93494.56;4986462;28;20038;-77
2023/04/20 05:59:25;;;;;;;16.27;12.70;;;;;;;8.99;56.36;93472.69;4998334;28;20036;-77
2023/04/20 06:01:51;;;;;;;15.98;12.80;;;;;;;8.83;57.62;93503.38;4989829;28;20061;-77
2023/04/20 06:04:16;;;;;;;17.17;13.73;;;;;;;8.66;58.43;93498.00;4989120;28;20027;-77
2023/04/20 06:06:42;;;;;;;15.73;14.02;;;;;;;8.59;59.18;93481.78;4987484;28;20029;-77
2023/04/20 06:09:07;;;;;;;17.73;14.07;;;;;;;8.62;59.90;93491.78;4988042;28;20042;-77
2023/04/20 06:11:33;;;;;;;19.77;13.57;;;;;;;8.54;61.38;93474.78;4985901;28;20079;-76
2023/04/20 06:13:59;;;;;;;17.08;14.82;;;;;;;8.58;61.83;93486.31;4995133;28;20038;-77
2023/04/20 06:16:24;;;;;;;18.77;14.82;;;;;;;8.66;61.85;93490.06;4986316;28;20065;-77
2023/04/20 06:18:50;;;;;;;19.77;15.05;;;;;;;8.88;61.61;93497.13;4986159;28;20034;-78
2023/04/20 06:21:16;;;;;;;17.20;14.88;;;;;;;8.97;60.55;93496.06;4993884;28;20378;-77
2023/04/20 06:23:43;;;;;;;21.60;15.77;;;;;;;9.06;60.52;93504.03;4987277;28;20121;-77
2023/04/20 06:26:09;;;;;;;18.13;14.35;;;;;;;9.16;59.74;93501.09;5001941;28;20030;-77
2023/04/20 06:28:35;;;;;;;18.98;14.32;;;;;;;9.05;59.78;93489.19;4989028;28;20102;-77
2023/04/20 06:31:01;;;;;;;22.27;16.15;;;;;;;8.94;59.21;93498.56;4986299;28;20026;-78
2023/04/20 06:33:27;;;;;;;26.23;17.15;;;;;;;8.75;59.84;93484.81;4987608;28;20042;-77
2023/04/20 06:35:53;;;;;;;24.65;15.10;;;;;;;8.75;59.56;93495.41;4986950;28;20090;-77
2023/04/20 06:38:19;;;;;;;21.08;14.82;;;;;;;8.67;60.00;93499.59;4988341;28;20420;-77
2023/04/20 06:40:45;;;;;;;19.25;14.52;;;;;;;8.55;59.69;93489.59;4985633;28;20042;-78
2023/04/20 06:43:10;;;;;;;18.83;13.48;;;;;;;8.56;60.70;93495.66;4988006;28;20033;-77
2023/04/20 06:45:36;;;;;;;18.10;13.98;;;;;;;8.85;60.06;93521.63;4988258;28;20026;-77
2023/04/20 06:48:01;;;;;;;20.17;14.35;;;;;;;8.93;59.29;93518.22;4987909;28;20508;-77
2023/04/20 06:50:27;;;;;;;18.10;14.40;;;;;;;9.03;58.63;93518.72;4988197;28;20030;-78
2023/04/20 06:52:52;;;;;;;20.23;15.02;;;;;;;9.10;58.42;93523.53;4986630;28;20464;-76
2023/04/20 06:55:18;;;;;;;17.67;14.10;;;;;;;9.10;58.33;93510.28;4986411;28;20057;-77
2023/04/20 06:57:43;;;;;;;18.10;14.52;;;;;;;9.01;58.98;93512.13;4986618;28;20053;-77
2023/04/20 07:00:10;;;;;;;16.13;13.05;;;;;;;9.16;58.65;93532.16;4988764;28;20076;-77
2023/04/20 07:02:43;;;;;;;19.77;14.02;;;;;;;9.08;60.08;93527.59;4983506;28;20029;-77
2023/04/20 07:05:09;;;;;;;21.92;13.95;;;;;;;8.87;59.59;93503.53;4986278;28;20038;-78
2023/04/20 07:07:34;;;;;;;18.65;12.43;;;;;;;9.09;59.74;93537.91;4987426;28;20041;-77
2023/04/20 07:10:00;;;;;;;16.58;12.45;;;;;;;9.19;59.68;93536.88;4986421;28;20054;-76
2023/04/20 07:12:26;;;;;;;17.27;13.85;;;;;;;9.20;59.60;93533.88;4984796;28;20038;-77
2023/04/20 07:14:51;;;;;;;16.73;12.25;;;;;;;9.29;58.56;93529.34;4987895;28;20065;-77
2023/04/20 07:17:17;;;;;;;12.07;10.18;;;;;;;8.96;57.68;93486.53;4986946;28;20600;-77
2023/04/20 07:19:42;;;;;;;13.20;11.10;;;;;;;9.31;57.48;93529.84;4988358;28;20092;-77
2023/04/20 07:22:08;;;;;;;14.32;11.70;;;;;;;9.14;57.65;93507.81;4986175;28;20022;-77
2023/04/20 07:24:33;;;;;;;13.48;11.52;;;;;;;9.34;57.81;93513.28;4987320;28;20533;-76
2023/04/20 07:26:58;;;;;;;14.45;11.82;;;;;;;9.44;57.33;93528.13;4985137;28;20046;-77
2023/04/20 07:29:24;;;;;;;14.30;12.27;;;;;;;9.38;57.02;93535.47;4986813;28;20026;-77
2023/04/20 07:31:49;;;;;;;14.23;11.95;;;;;;;8.89;58.52;93525.22;4986081;28;20441;-76
2023/04/20 07:34:15;;;;;;;16.60;12.30;;;;;;;8.77;59.63;93527.69;4985477;28;20022;-77
2023/04/20 07:36:40;;;;;;;19.63;13.95;;;;;;;8.83;59.60;93529.09;4983971;28;20544;-76
2023/04/20 07:39:06;;;;;;;17.40;12.38;;;;;;;8.74;59.74;93515.84;4986796;28;20076;-76
2023/04/20 07:41:31;;;;;;;17.30;13.20;;;;;;;8.85;58.98;93525.03;4984310;28;20524;-77
2023/04/20 07:43:56;;;;;;;18.52;14.18;;;;;;;8.55;60.01;93479.00;4984502;28;20500;-78
2023/04/20 07:46:22;;;;;;;17.20;12.50;;;;;;;8.99;59.05;93506.38;4985192;28;20044;-77
2023/04/20 07:48:47;;;;;;;14.02;12.30;;;;;;;9.19;58.63;93532.34;4985953;28;20036;-77
2023/04/20 07:51:13;;;;;;;15.40;12.57;;;;;;;9.23;57.40;93512.03;4982431;28;20124;-77
2023/04/20 07:53:38;;;;;;;15.95;12.07;;;;;;;9.35;58.79;93524.69;4979748;28;20485;-77
2023/04/20 07:56:04;;;;;;;19.33;12.80;;;;;;;9.52;56.41;93523.91;4984743;28;20065;-77
2023/04/20 07:58:29;;;;;;;13.15;11.75;;;;;;;9.58;56.38;93523.47;4988937;28;20611;-77
2023/04/20 08:00:55;;;;;;;16.80;11.82;;;;;;;9.52;55.71;93506.13;4986528;28;20033;-76
2023/04/20 08:03:20;;;;;;;17.60;11.48;;;;;;;9.55;55.58;93515.31;4986298;28;20061;-78
2023/04/20 08:05:46;;;;;;;16.45;13.02;;;;;;;9.52;55.54;93511.44;4980571;28;20042;-77
2023/04/20 08:08:11;;;;;;;19.17;12.35;;;;;;;9.62;55.30;93507.66;4983811;28;20610;-78
2023/04/20 08:10:36;;;;;;;15.40;11.70;;;;;;;9.69;56.89;93526.56;4980886;28;20046;-77
2023/04/20 08:13:02;;;;;;;13.88;11.45;;;;;;;9.65;56.21;93499.84;4980158;28;20029;-77
2023/04/20 08:15:28;;;;;;;16.17;11.35;;;;;;;9.87;54.39;93509.53;4979644;28;20543;-76
2023/04/20 08:17:53;;;;;;;16.48;13.20;;;;;;;9.93;55.58;93531.38;4981476;28;20047;-78
2023/04/20 08:20:18;;;;;;;15.02;11.98;;;;;;;9.99;55.04;93522.91;4983934;28;20397;-77
2023/04/20 08:22:44;;;;;;;14.13;11.43;;;;;;;9.92;54.30;93514.66;4985380;28;20034;-78
2023/04/20 08:25:10;;;;;;;14.70;11.38;;;;;;;10.05;55.22;93529.63;4984335;28;20638;-77
2023/04/20 08:27:35;;;;;;;16.15;11.98;;;;;;;9.94;54.95;93530.28;4986074;28;20029;-78
2023/04/20 08:30:03;;;;;;;17.13;11.73;;;;;;;9.88;54.01;93532.31;4989480;28;20397;-77
2023/04/20 08:32:28;;;;;;;18.05;11.65;;;;;;;9.42;55.34;93503.78;4989765;28;20040;-77
2023/04/20 08:34:54;;;;;;;19.95;14.60;;;;;;;9.54;56.53;93534.97;4990055;28;20045;-76
2023/04/20 08:37:20;;;;;;;15.93;12.77;;;;;;;9.51;55.80;93530.31;4989471;28;20032;-77
2023/04/20 08:39:45;;;;;;;15.52;11.90;;;;;;;9.35;56.75;93530.00;4989664;28;20030;-77
2023/04/20 08:42:11;;;;;;;16.80;12.70;;;;;;;9.47;56.49;93532.03;4985066;28;20031;-77
2023/04/20 08:44:36;;;;;;;17.58;12.45;;;;;;;9.65;56.87;93542.34;4984550;28;20129;-75
2023/04/20 08:47:02;;;;;;;15.43;11.95;;;;;;;9.85;55.54;93538.25;4989356;28;20165;-77
2023/04/20 08:49:29;;;;;;;13.85;12.30;;;;;;;9.87;56.04;93544.84;4987603;28;20042;-77
2023/04/20 08:51:55;;;;;;;18.52;11.90;;;;;;;9.92;55.36;93522.63;4989518;28;20037;-77
2023/04/20 08:54:20;;;;;;;19.23;13.23;;;;;;;10.04;55.04;93508.69;4988903;28;20691;-77
2023/04/20 08:56:46;;;;;;;18.48;13.15;;;;;;;10.50;54.38;93537.19;4988569;28;20532;-76
2023/04/20 08:59:13;;;;;;;15.30;12.02;;;;;;;10.51;53.77;93534.22;4989781;28;20045;-77
2023/04/20 09:01:40;;;;;;;13.13;11.68;;;;;;;10.63;52.94;93522.91;4989419;28;20580;-77
2023/04/20 09:04:23;;;;;;;16.60;12.98;;;;;;;10.65;53.20;93544.66;4989644;28;20026;-77
2023/04/20 09:06:51;;;;;;;15.55;11.95;;;;;;;10.60;52.27;93544.81;4996644;28;20065;-77
2023/04/20 09:09:17;;;;;;;15.05;12.55;;;;;;;10.44;53.01;93543.78;4989889;28;20129;-77
2023/04/20 09:11:43;;;;;;;17.35;11.90;;;;;;;10.30;53.08;93550.06;4987734;28;20084;-76
2023/04/20 09:14:14;;;;;;;16.20;13.45;;;;;;;10.40;53.50;93553.50;4988918;28;20030;-77
2023/04/20 09:17:03;;;;;;;14.27;11.63;;;;;;;10.23;54.13;93552.41;4987838;28;20034;-76
2023/04/20 09:19:30;;;;;;;15.73;12.93;;;;;;;10.22;54.28;93553.50;4990465;28;20042;-76
2023/04/20 09:21:57;;;;;;;17.00;12.30;;;;;;;9.93;54.84;93537.47;4984438;28;20056;-77
2023/04/20 09:24:30;;;;;;;13.15;11.57;;;;;;;9.97;54.62;93540.28;4988437;28;20030;-77
2023/04/20 09:26:55;;;;;;;15.15;11.98;;;;;;;10.04;55.34;93535.25;4982755;28;20395;-77
2023/04/20 09:29:24;;;;;;;17.10;12.10;;;;;;;10.15;54.50;93542.59;4987263;28;20046;-77
2023/04/20 09:31:50;;;;;;;16.98;12.30;;;;;;;10.06;54.37;93549.81;4984852;28;20520;-77
2023/04/20 09:34:16;;;;;;;15.25;12.10;;;;;;;9.99;54.52;93527.44;4988264;28;20570;-75
2023/04/20 09:36:42;;;;;;;26.77;13.38;;;;;;;10.18;54.56;93535.84;4989357;28;20485;-78
2023/04/20 09:39:13;;;;;;;15.02;12.30;;;;;;;10.30;54.30;93522.69;4990412;28;20507;-77
2023/04/20 09:41:40;;;;;;;13.80;11.48;;;;;;;10.20;54.22;93513.19;4996496;28;20179;-77
2023/04/20 09:44:07;;;;;;;16.67;12.75;;;;;;;10.44;53.41;93538.47;4986156;28;20049;-77
2023/04/20 09:46:34;;;;;;;15.05;11.10;;;;;;;10.38;53.80;93511.28;4987143;28;20043;-78
2023/04/20 09:49:02;;;;;;;20.63;13.20;;;;;;;10.43;54.15;93505.78;4989512;28;20017;-77
2023/04/20 09:51:30;;;;;;;16.02;13.45;;;;;;;10.66;53.63;93527.59;4987812;28;20042;-77
2023/04/20 09:54:00;;;;;;;15.95;12.35;;;;;;;10.61;54.38;93522.47;4987976;28;20155;-77
2023/04/20 09:56:26;;;;;;;13.77;11.13;;;;;;;10.89;53.60;93523.56;4983797;28;20034;-78
2023/04/20 09:58:53;;;;;;;13.52;11.13;;;;;;;10.95;52.44;93511.66;4987926;28;20050;-77
2023/04/20 10:01:19;;;;;;;16.10;12.90;;;;;;;10.95;52.72;93522.28;4988784;28;20030;-78
2023/04/20 10:03:45;;;;;;;13.15;11.65;;;;;;;11.06;52.33;93507.50;4987200;28;20409;-78
2023/04/20 10:06:36;;;;;;;16.00;12.15;;;;;;;11.10;51.83;93511.06;4994513;28;20046;-79
2023/04/20 10:09:04;;;;;;;15.93;11.57;;;;;;;11.08;51.35;93493.88;4987060;28;20084;-77
2023/04/20 10:11:35;;;;;;;13.82;11.75;;;;;;;11.10;52.14;93497.75;4983825;28;20468;-77
2023/04/20 10:14:15;;;;;;;17.90;10.80;;;;;;;11.30;51.29;93500.75;4983928;28;20081;-79
2023/04/20 10:16:41;;;;;;;14.10;10.15;;;;;;;11.23;51.49;93500.50;4984289;28;20058;-77
2023/04/20 10:19:06;;;;;;;19.55;11.38;;;;;;;11.25;50.86;93492.97;4988257;28;20141;-78
2023/04/20 10:21:32;;;;;;;14.95;10.82;;;;;;;11.24;50.99;93502.06;4985956;28;20612;-77
2023/04/20 10:24:01;;;;;;;15.02;11.80;;;;;;;11.13;51.27;93497.13;4987665;28;20386;-77
2023/04/20 10:26:42;;;;;;;13.40;10.98;;;;;;;11.16;50.97;93496.47;4986476;28;20112;-77
2023/04/20 10:29:08;;;;;;;20.30;12.27;;;;;;;11.23;50.77;93490.63;4985427;28;20034;-77
2023/04/20 10:31:40;;;;;;;13.10;11.52;;;;;;;11.32;51.57;93506.53;4987404;28;20097;-76
2023/04/20 10:34:07;;;;;;;17.65;12.13;;;;;;;11.51;52.25;93490.91;4985719;28;21013;-75
2023/04/20 10:36:35;;;;;;;12.77;11.43;;;;;;;11.71;50.59;93495.44;4986060;28;20057;-77
2023/04/20 10:39:21;;;;;;;11.30;9.55;;;;;;;11.81;49.00;93488.94;4986148;28;20069;-77
2023/04/20 10:42:03;;;;;;;12.13;10.82;;;;;;;11.61;50.13;93490.53;4985056;28;20041;-76
2023/04/20 10:44:34;;;;;;;12.35;11.05;;;;;;;11.40;50.34;93479.84;4973796;28;20723;-76
2023/04/20 10:46:59;;;;;;;10.88;9.63;;;;;;;11.41;50.36;93475.31;4985861;28;20268;-77
2023/04/20 10:49:27;;;;;;;13.90;11.07;;;;;;;11.45;50.32;93474.31;4983491;28;20522;-78
2023/04/20 10:51:53;;;;;;;12.57;10.85;;;;;;;11.60;50.59;93480.97;4991599;28;20113;-78
2023/04/20 10:54:19;;;;;;;12.30;11.00;;;;;;;11.81;50.67;93488.94;4993639;28;20030;-80
2023/04/20 10:56:46;;;;;;;15.40;11.25;;;;;;;11.82;50.14;93480.63;4985582;28;20037;-75
2023/04/20 10:59:16;;;;;;;12.85;10.55;;;;;;;11.99;49.34;93485.75;4982732;28;20041;-78
2023/04/20 11:01:43;;;;;;;13.45;10.20;;;;;;;12.11;48.79;93484.25;4985949;28;20615;-77
2023/04/20 11:04:10;;;;;;;14.77;9.98;;;;;;;12.14;48.38;93472.91;4984976;28;20018;-78
2023/04/20 11:06:39;;;;;;;15.27;11.10;;;;;;;12.44;50.30;93476.97;4983785;28;20037;-77
2023/04/20 11:09:23;;;;;;;10.30;9.27;;;;;;;12.51;49.01;93463.88;4985198;28;20049;-78
2023/04/20 11:12:10;;;;;;;11.93;9.68;;;;;;;12.47;48.08;93477.06;4984027;28;20069;-79
2023/04/20 11:15:01;;;;;;;11.38;9.27;;;;;;;12.38;48.12;93473.72;4978022;28;20052;-76
2023/04/20 11:17:34;;;;;;;13.27;10.88;;;;;;;12.39;48.03;93445.19;4983427;28;20509;-78
2023/04/20 11:20:14;;;;;;;12.63;10.38;;;;;;;12.62;48.53;93470.31;4986162;28;20042;-78
2023/04/20 11:22:41;;;;;;;11.30;10.13;;;;;;;12.46;48.69;93462.19;4983799;28;20044;-79
2023/04/20 11:25:09;;;;;;;10.38;9.25;;;;;;;12.42;47.96;93471.94;4982267;28;20026;-79